createdAt,value
2022-11-17T00:02:54.876Z,7.4
2022-11-17T00:08:02.667Z,7.4
2022-11-17T00:13:10.618Z,7.4
2022-11-17T00:18:18.612Z,7.4
2022-11-17T00:23:26.561Z,7.4
2022-11-17T00:28:34.703Z,7.4
2022-11-17T00:33:42.502Z,7.4
2022-11-17T00:38:50.454Z,7.4
2022-11-17T00:43:58.407Z,7.4
2022-11-17T00:54:14.476Z,7.4
2022-11-17T00:59:20.692Z,7.4
2022-11-17T01:04:27.071Z,7.4
2022-11-17T01:09:35.141Z,7.4
2022-11-17T01:14:43.000Z,7.4
2022-11-17T01:24:58.932Z,7.4
2022-11-17T01:30:06.897Z,7.4
2022-11-17T01:35:14.853Z,7.4
2022-11-17T01:40:22.895Z,7.4
2022-11-17T01:45:30.783Z,7.4
2022-11-17T01:50:38.741Z,7.4
2022-11-17T02:06:02.779Z,7.4
2022-11-17T02:11:10.599Z,7.4
2022-11-17T02:16:18.579Z,7.4
2022-11-17T02:21:26.650Z,7.4
2022-11-17T02:26:34.495Z,7.4
2022-11-17T02:31:42.490Z,7.4
2022-11-17T02:41:58.520Z,7.4
2022-11-17T02:47:06.357Z,7.5
2022-11-17T02:52:14.322Z,7.5
2022-11-17T02:57:22.401Z,7.5
2022-11-17T03:02:30.259Z,7.5
2022-11-17T03:07:38.200Z,7.5
2022-11-17T03:12:46.310Z,7.4
2022-11-17T03:23:02.106Z,7.4
2022-11-17T03:28:10.182Z,7.4
2022-11-17T03:33:18.029Z,7.4
2022-11-17T03:38:26.008Z,7.4
2022-11-17T03:43:34.461Z,7.4
2022-11-17T03:48:41.929Z,7.4
2022-11-17T03:53:49.882Z,7.4
2022-11-17T03:58:57.880Z,7.4
2022-11-17T04:09:13.794Z,7.4
2022-11-17T04:14:21.898Z,7.4
2022-11-17T04:19:29.733Z,7.4
2022-11-17T04:24:37.685Z,7.4
2022-11-17T04:29:45.780Z,7.4
2022-11-17T04:40:01.580Z,7.4
2022-11-17T04:45:09.581Z,7.4
2022-11-17T04:50:17.513Z,7.4
2022-11-17T04:55:25.481Z,7.4
2022-11-17T05:05:41.435Z,7.4
2022-11-17T05:10:49.432Z,7.3
2022-11-17T05:15:57.340Z,7.3
2022-11-17T05:26:13.291Z,7.3
2022-11-17T05:31:21.223Z,7.3
2022-11-17T05:36:29.213Z,7.3
2022-11-17T05:41:37.286Z,7.4
2022-11-17T05:46:45.117Z,7.4
2022-11-17T05:51:53.375Z,7.4
2022-11-17T05:57:01.187Z,7.4
2022-11-17T06:02:09.034Z,7.4
2022-11-17T06:07:17.283Z,7.4
2022-11-17T06:12:24.978Z,7.4
2022-11-17T06:17:32.938Z,7.4
2022-11-17T06:22:45.444Z,7.4
2022-11-17T06:27:48.991Z,7.4
2022-11-17T06:32:56.835Z,7.3
2022-11-17T06:38:04.816Z,7.3
2022-11-17T06:48:20.781Z,7.4
2022-11-17T06:53:28.672Z,7.4
2022-11-17T06:58:37.046Z,7.3
2022-11-17T07:03:44.740Z,7.4
2022-11-17T07:08:52.594Z,7.4
2022-11-17T07:14:00.531Z,7.4
2022-11-17T07:19:08.536Z,7.4
2022-11-17T07:24:16.486Z,7.4
2022-11-17T07:29:24.443Z,7.4
2022-11-17T07:34:32.536Z,7.4
2022-11-17T07:39:40.373Z,7.4
2022-11-17T07:44:48.334Z,7.4
2022-11-17T07:49:56.325Z,7.4
2022-11-17T07:55:04.254Z,7.4
2022-11-17T08:00:12.224Z,7.4
2022-11-17T08:05:20.298Z,7.4
2022-11-17T08:10:28.153Z,7.4
2022-11-17T08:15:36.119Z,7.4
2022-11-17T08:20:44.117Z,7.4
2022-11-17T08:25:52.045Z,7.4
2022-11-17T08:31:00.032Z,7.4
2022-11-17T08:36:08.125Z,7.4
2022-11-17T08:41:15.950Z,7.4
2022-11-17T08:46:23.951Z,7.4
2022-11-17T08:51:32.025Z,7.4
2022-11-17T08:56:40.015Z,7.4
2022-11-17T09:01:47.862Z,7.4
2022-11-17T09:06:55.949Z,7.4
2022-11-17T09:12:03.755Z,7.4
2022-11-17T09:17:11.726Z,7.4
2022-11-17T09:22:20.002Z,7.4
2022-11-17T09:27:26.638Z,7.4
2022-11-17T09:32:34.547Z,7.4
2022-11-17T09:37:42.660Z,7.4
2022-11-17T09:42:50.463Z,7.4
2022-11-17T09:48:12.512Z,7.4
2022-11-17T09:53:06.450Z,7.4
2022-11-17T09:58:14.374Z,7.5
2022-11-17T10:03:22.334Z,7.5
2022-11-17T10:08:30.324Z,7.5
2022-11-17T10:13:38.549Z,7.5
2022-11-17T10:18:46.231Z,7.5
2022-11-17T10:23:54.310Z,7.5
2022-11-17T10:29:08.126Z,7.6
2022-11-17T10:34:10.137Z,7.5
2022-11-17T10:39:18.125Z,7.6
2022-11-17T10:44:26.052Z,7.6
2022-11-17T10:49:34.029Z,7.6
2022-11-17T10:54:42.039Z,7.6
2022-11-17T10:59:56.228Z,7.6
2022-11-17T11:04:56.701Z,7.6
2022-11-17T11:10:03.472Z,7.6
2022-11-17T11:15:10.163Z,7.6
2022-11-17T11:20:16.898Z,7.6
2022-11-17T11:25:23.639Z,7.6
2022-11-17T11:30:31.619Z,7.6
2022-11-17T11:35:38.350Z,7.6
2022-11-17T11:40:45.123Z,7.7
2022-11-17T11:45:51.820Z,7.7
2022-11-17T11:50:58.566Z,7.7
2022-11-17T11:56:05.304Z,7.7
2022-11-17T12:01:12.035Z,7.7
2022-11-17T12:06:18.758Z,7.7
2022-11-17T12:21:41.438Z,7.7
2022-11-17T12:26:48.159Z,7.7
2022-11-17T12:31:54.913Z,7.7
2022-11-17T12:37:02.913Z,7.7
2022-11-17T12:42:10.827Z,7.7
2022-11-17T12:47:18.781Z,7.8
2022-11-17T12:52:26.837Z,7.8
2022-11-17T12:57:34.728Z,7.8
2022-11-17T13:02:42.696Z,7.8
2022-11-17T13:07:50.714Z,7.8
2022-11-17T13:12:58.607Z,7.8
2022-11-17T13:18:06.586Z,7.8
2022-11-17T13:23:14.571Z,7.9
2022-11-17T13:28:22.524Z,7.9
2022-11-17T13:33:34.288Z,7.9
2022-11-17T13:38:38.472Z,7.9
2022-11-17T13:43:46.417Z,7.9
2022-11-17T13:48:54.401Z,7.9
2022-11-17T13:54:02.352Z,8
2022-11-17T13:59:10.294Z,8
2022-11-17T14:04:20.156Z,7.9
2022-11-17T14:09:26.341Z,8
2022-11-17T14:14:34.203Z,8
2022-11-17T14:24:50.153Z,8
2022-11-17T14:29:58.091Z,8
2022-11-17T14:35:06.108Z,8
2022-11-17T14:40:14.046Z,8
2022-11-17T14:45:21.989Z,8
2022-11-17T14:50:29.941Z,8
2022-11-17T14:55:37.946Z,8
2022-11-17T15:00:45.892Z,8
2022-11-17T15:05:53.850Z,8
2022-11-17T15:11:01.839Z,8
2022-11-17T15:16:09.747Z,8
2022-11-17T15:21:17.720Z,8
2022-11-17T15:26:25.734Z,8
2022-11-17T15:31:33.647Z,8
2022-11-17T15:41:49.628Z,8
2022-11-17T15:46:57.551Z,8
2022-11-17T15:52:05.511Z,8
2022-11-17T15:57:13.667Z,7.9
2022-11-17T16:02:21.440Z,7.9
2022-11-17T16:07:29.512Z,8
2022-11-17T16:12:37.391Z,8
2022-11-17T16:17:45.348Z,8
2022-11-17T16:28:01.284Z,8
2022-11-17T16:33:09.242Z,7.9
2022-11-17T16:38:17.208Z,7.9
2022-11-17T16:43:25.203Z,7.9
2022-11-17T16:48:33.159Z,7.9
2022-11-17T16:53:41.097Z,7.9
2022-11-17T16:58:49.088Z,7.8
2022-11-17T17:03:57.028Z,7.8
2022-11-17T17:09:05.008Z,7.8
2022-11-17T17:19:20.962Z,7.8
2022-11-17T17:24:27.652Z,7.8
2022-11-17T17:29:34.401Z,7.8
2022-11-17T17:34:42.474Z,7.7
2022-11-17T17:39:50.325Z,7.7
2022-11-17T17:44:58.293Z,7.7
2022-11-17T17:50:06.282Z,7.7
2022-11-17T17:55:14.228Z,7.7
2022-11-17T18:00:22.198Z,7.7
2022-11-17T18:05:30.177Z,7.7
2022-11-17T18:10:38.115Z,7.7
2022-11-17T18:15:46.079Z,7.6
2022-11-17T18:31:09.979Z,7.6
2022-11-17T18:36:17.951Z,7.6
2022-11-17T18:41:24.675Z,7.6
2022-11-17T18:46:31.453Z,7.6
2022-11-17T18:51:38.151Z,7.6
2022-11-17T18:56:46.106Z,7.6
2022-11-17T19:01:53.036Z,7.5
2022-11-17T19:06:59.630Z,7.5
2022-11-17T19:12:07.554Z,7.5
2022-11-17T19:17:15.545Z,7.5
2022-11-17T19:22:23.496Z,7.5
2022-11-17T19:27:31.450Z,7.5
2022-11-17T19:32:39.442Z,7.5
2022-11-17T19:37:47.389Z,7.5
2022-11-17T19:53:11.314Z,7.4
2022-11-17T19:58:18.011Z,7.4
2022-11-17T20:03:24.745Z,7.4
2022-11-17T20:08:31.503Z,7.3
2022-11-17T20:13:38.223Z,7.4
2022-11-17T20:18:44.954Z,7.3
2022-11-17T20:23:52.957Z,7.3
2022-11-17T20:29:00.912Z,7.4
2022-11-17T20:34:08.852Z,7.4
2022-11-17T20:39:17.126Z,7.3
2022-11-17T20:44:24.783Z,7.3
2022-11-17T20:49:32.746Z,7.3
2022-11-17T20:54:40.720Z,7.3
2022-11-17T20:59:48.668Z,7.3
2022-11-17T21:04:56.631Z,7.3
2022-11-17T21:10:04.637Z,7.3
2022-11-17T21:15:12.582Z,7.3
2022-11-17T21:20:20.531Z,7.3
2022-11-17T21:25:28.524Z,7.3
2022-11-17T21:30:36.487Z,7.3
2022-11-17T21:35:44.423Z,7.3
2022-11-17T21:40:52.440Z,7.2
2022-11-17T21:46:00.358Z,7.2
2022-11-17T21:51:08.329Z,7.2
2022-11-17T21:56:16.336Z,7.2
2022-11-17T22:01:24.375Z,7.2
2022-11-17T22:06:32.229Z,7.2
2022-11-17T22:11:40.222Z,7.2
2022-11-17T22:16:48.144Z,7.2
2022-11-17T22:21:56.132Z,7.2
2022-11-17T22:27:04.134Z,7.2
2022-11-17T22:32:12.071Z,7.2
2022-11-17T22:37:20.044Z,7.2
2022-11-17T22:42:28.001Z,7.2
2022-11-17T22:47:35.941Z,7.2
2022-11-17T22:52:43.932Z,7.1
2022-11-17T22:57:51.908Z,7.1
2022-11-17T23:02:59.934Z,7.1
2022-11-17T23:08:09.865Z,7.1
2022-11-17T23:13:15.794Z,7.1
2022-11-17T23:18:23.739Z,7.1
2022-11-17T23:23:31.716Z,7.1
2022-11-17T23:28:39.691Z,7.1
2022-11-17T23:33:47.638Z,7.1
2022-11-17T23:38:55.617Z,7
2022-11-17T23:44:03.588Z,7
2022-11-17T23:54:19.504Z,7
2022-11-17T23:59:27.514Z,7
